sensor_id;sensor_type;location;lat;lon;timestamp;P1;durP1;ratioP1;P2;durP2;ratioP2
12052;SDS011;6087;48.982;12.064;2022-11-04T00:01:31;11.00;;;7.85;;
12052;SDS011;6087;48.982;12.064;2022-11-04T00:03:58;13.15;;;7.30;;
12052;SDS011;6087;48.982;12.064;2022-11-04T00:06:27;11.73;;;7.90;;
12052;SDS011;6087;48.982;12.064;2022-11-04T00:08:55;13.45;;;8.05;;
12052;SDS011;6087;48.982;12.064;2022-11-04T00:11:24;11.68;;;8.05;;
12052;SDS011;6087;48.982;12.064;2022-11-04T00:14:09;16.02;;;8.00;;
12052;SDS011;6087;48.982;12.064;2022-11-04T00:16:37;8.95;;;7.32;;
12052;SDS011;6087;48.982;12.064;2022-11-04T00:19:21;12.30;;;7.95;;
12052;SDS011;6087;48.982;12.064;2022-11-04T00:21:50;10.02;;;7.30;;
12052;SDS011;6087;48.982;12.064;2022-11-04T00:24:34;11.98;;;8.30;;
12052;SDS011;6087;48.982;12.064;2022-11-04T00:27:19;15.00;;;9.15;;
12052;SDS011;6087;48.982;12.064;2022-11-04T00:30:04;11.77;;;8.10;;
12052;SDS011;6087;48.982;12.064;2022-11-04T00:32:36;11.40;;;8.70;;
12052;SDS011;6087;48.982;12.064;2022-11-04T00:35:20;10.23;;;9.05;;
12052;SDS011;6087;48.982;12.064;2022-11-04T00:37:49;13.40;;;9.20;;
12052;SDS011;6087;48.982;12.064;2022-11-04T00:40:16;13.05;;;9.70;;
12052;SDS011;6087;48.982;12.064;2022-11-04T00:42:43;13.18;;;9.75;;
12052;SDS011;6087;48.982;12.064;2022-11-04T00:45:11;14.60;;;9.23;;
12052;SDS011;6087;48.982;12.064;2022-11-04T00:47:38;14.43;;;8.90;;
12052;SDS011;6087;48.982;12.064;2022-11-04T00:50:06;17.33;;;10.07;;
12052;SDS011;6087;48.982;12.064;2022-11-04T00:52:33;11.75;;;8.38;;
12052;SDS011;6087;48.982;12.064;2022-11-04T00:55:02;13.95;;;9.30;;
12052;SDS011;6087;48.982;12.064;2022-11-04T00:57:29;13.15;;;9.43;;
12052;SDS011;6087;48.982;12.064;2022-11-04T00:59:56;13.98;;;9.98;;
12052;SDS011;6087;48.982;12.064;2022-11-04T01:02:24;14.02;;;9.60;;
12052;SDS011;6087;48.982;12.064;2022-11-04T01:04:51;13.95;;;9.55;;
12052;SDS011;6087;48.982;12.064;2022-11-04T01:07:19;15.45;;;10.20;;
12052;SDS011;6087;48.982;12.064;2022-11-04T01:09:47;13.75;;;8.77;;
12052;SDS011;6087;48.982;12.064;2022-11-04T01:12:15;13.05;;;9.98;;
12052;SDS011;6087;48.982;12.064;2022-11-04T01:14:42;16.05;;;9.65;;
12052;SDS011;6087;48.982;12.064;2022-11-04T01:17:13;14.88;;;10.05;;
12052;SDS011;6087;48.982;12.064;2022-11-04T01:19:40;12.25;;;9.77;;
12052;SDS011;6087;48.982;12.064;2022-11-04T01:22:07;15.43;;;10.35;;
12052;SDS011;6087;48.982;12.064;2022-11-04T01:24:34;17.05;;;10.60;;
12052;SDS011;6087;48.982;12.064;2022-11-04T01:27:01;14.45;;;9.88;;
12052;SDS011;6087;48.982;12.064;2022-11-04T01:29:30;13.68;;;10.25;;
12052;SDS011;6087;48.982;12.064;2022-11-04T01:31:57;13.07;;;9.90;;
12052;SDS011;6087;48.982;12.064;2022-11-04T01:34:24;12.02;;;9.80;;
12052;SDS011;6087;48.982;12.064;2022-11-04T01:36:51;12.90;;;10.35;;
12052;SDS011;6087;48.982;12.064;2022-11-04T01:39:18;16.50;;;9.05;;
12052;SDS011;6087;48.982;12.064;2022-11-04T01:41:45;12.07;;;9.25;;
12052;SDS011;6087;48.982;12.064;2022-11-04T01:47:22;16.55;;;10.32;;
12052;SDS011;6087;48.982;12.064;2022-11-04T01:49:55;16.30;;;9.68;;
12052;SDS011;6087;48.982;12.064;2022-11-04T01:52:27;14.45;;;10.05;;
12052;SDS011;6087;48.982;12.064;2022-11-04T01:54:58;13.27;;;9.07;;
12052;SDS011;6087;48.982;12.064;2022-11-04T01:57:31;13.07;;;9.20;;
12052;SDS011;6087;48.982;12.064;2022-11-04T02:00:04;13.68;;;9.05;;
12052;SDS011;6087;48.982;12.064;2022-11-04T02:02:34;14.02;;;9.52;;
12052;SDS011;6087;48.982;12.064;2022-11-04T02:05:06;14.25;;;8.93;;
12052;SDS011;6087;48.982;12.064;2022-11-04T02:07:33;14.65;;;9.18;;
12052;SDS011;6087;48.982;12.064;2022-11-04T02:10:01;14.80;;;9.60;;
12052;SDS011;6087;48.982;12.064;2022-11-04T02:12:28;10.57;;;8.68;;
12052;SDS011;6087;48.982;12.064;2022-11-04T02:15:32;13.82;;;9.15;;
12052;SDS011;6087;48.982;12.064;2022-11-04T02:18:27;9.93;;;8.80;;
12052;SDS011;6087;48.982;12.064;2022-11-04T02:21:12;9.98;;;7.63;;
12052;SDS011;6087;48.982;12.064;2022-11-04T02:24:35;12.30;;;8.48;;
12052;SDS011;6087;48.982;12.064;2022-11-04T02:27:15;8.82;;;7.90;;
12052;SDS011;6087;48.982;12.064;2022-11-04T02:29:55;10.65;;;8.50;;
12052;SDS011;6087;48.982;12.064;2022-11-04T02:32:37;15.02;;;9.50;;
12052;SDS011;6087;48.982;12.064;2022-11-04T02:35:15;9.98;;;7.07;;
12052;SDS011;6087;48.982;12.064;2022-11-04T02:37:50;11.13;;;7.68;;
12052;SDS011;6087;48.982;12.064;2022-11-04T02:40:24;9.82;;;7.00;;
12052;SDS011;6087;48.982;12.064;2022-11-04T02:42:59;9.70;;;6.82;;
12052;SDS011;6087;48.982;12.064;2022-11-04T02:45:32;6.53;;;5.60;;
12052;SDS011;6087;48.982;12.064;2022-11-04T02:48:04;9.27;;;5.85;;
12052;SDS011;6087;48.982;12.064;2022-11-04T02:50:38;8.43;;;6.03;;
12052;SDS011;6087;48.982;12.064;2022-11-04T02:53:11;7.50;;;5.90;;
12052;SDS011;6087;48.982;12.064;2022-11-04T02:55:42;6.55;;;5.35;;
12052;SDS011;6087;48.982;12.064;2022-11-04T02:58:13;5.90;;;5.05;;
12052;SDS011;6087;48.982;12.064;2022-11-04T03:00:45;6.93;;;5.35;;
12052;SDS011;6087;48.982;12.064;2022-11-04T03:03:16;10.10;;;5.95;;
12052;SDS011;6087;48.982;12.064;2022-11-04T03:05:47;6.63;;;5.10;;
12052;SDS011;6087;48.982;12.064;2022-11-04T03:08:17;7.50;;;5.28;;
12052;SDS011;6087;48.982;12.064;2022-11-04T03:10:49;9.15;;;5.53;;
12052;SDS011;6087;48.982;12.064;2022-11-04T03:13:19;7.85;;;4.85;;
12052;SDS011;6087;48.982;12.064;2022-11-04T03:15:52;6.93;;;4.82;;
12052;SDS011;6087;48.982;12.064;2022-11-04T03:18:26;6.25;;;5.07;;
12052;SDS011;6087;48.982;12.064;2022-11-04T03:21:00;6.55;;;5.25;;
12052;SDS011;6087;48.982;12.064;2022-11-04T03:23:30;6.70;;;4.40;;
12052;SDS011;6087;48.982;12.064;2022-11-04T03:26:01;5.32;;;4.78;;
12052;SDS011;6087;48.982;12.064;2022-11-04T03:28:36;5.68;;;4.45;;
12052;SDS011;6087;48.982;12.064;2022-11-04T03:31:11;6.78;;;4.68;;
12052;SDS011;6087;48.982;12.064;2022-11-04T03:33:48;6.90;;;4.05;;
12052;SDS011;6087;48.982;12.064;2022-11-04T03:36:16;5.10;;;3.90;;
12052;SDS011;6087;48.982;12.064;2022-11-04T03:38:43;4.88;;;3.75;;
12052;SDS011;6087;48.982;12.064;2022-11-04T03:41:12;4.90;;;4.40;;
12052;SDS011;6087;48.982;12.064;2022-11-04T03:43:42;4.93;;;3.60;;
12052;SDS011;6087;48.982;12.064;2022-11-04T03:46:11;4.75;;;3.75;;
12052;SDS011;6087;48.982;12.064;2022-11-04T03:48:38;7.95;;;4.43;;
12052;SDS011;6087;48.982;12.064;2022-11-04T03:51:09;5.00;;;3.97;;
12052;SDS011;6087;48.982;12.064;2022-11-04T03:53:36;7.05;;;4.65;;
12052;SDS011;6087;48.982;12.064;2022-11-04T03:56:06;6.82;;;4.35;;
12052;SDS011;6087;48.982;12.064;2022-11-04T03:58:54;6.13;;;4.40;;
12052;SDS011;6087;48.982;12.064;2022-11-04T04:01:35;6.90;;;5.13;;
12052;SDS011;6087;48.982;12.064;2022-11-04T04:04:10;5.65;;;3.88;;
12052;SDS011;6087;48.982;12.064;2022-11-04T04:06:42;6.22;;;4.20;;
12052;SDS011;6087;48.982;12.064;2022-11-04T04:09:11;5.68;;;4.32;;
12052;SDS011;6087;48.982;12.064;2022-11-04T04:11:47;5.63;;;4.55;;
12052;SDS011;6087;48.982;12.064;2022-11-04T04:14:21;4.88;;;4.18;;
12052;SDS011;6087;48.982;12.064;2022-11-04T04:17:06;5.40;;;4.63;;
12052;SDS011;6087;48.982;12.064;2022-11-04T04:19:37;6.07;;;4.57;;
12052;SDS011;6087;48.982;12.064;2022-11-04T04:22:08;7.20;;;4.97;;
12052;SDS011;6087;48.982;12.064;2022-11-04T04:24:41;4.63;;;4.07;;
12052;SDS011;6087;48.982;12.064;2022-11-04T04:27:28;6.50;;;4.30;;
12052;SDS011;6087;48.982;12.064;2022-11-04T04:29:57;5.72;;;4.68;;
12052;SDS011;6087;48.982;12.064;2022-11-04T04:32:29;6.25;;;4.85;;
12052;SDS011;6087;48.982;12.064;2022-11-04T04:35:00;7.38;;;4.20;;
12052;SDS011;6087;48.982;12.064;2022-11-04T04:37:45;6.88;;;4.63;;
12052;SDS011;6087;48.982;12.064;2022-11-04T04:40:14;7.32;;;5.85;;
12052;SDS011;6087;48.982;12.064;2022-11-04T04:43:01;6.85;;;5.80;;
12052;SDS011;6087;48.982;12.064;2022-11-04T04:45:42;8.07;;;6.93;;
12052;SDS011;6087;48.982;12.064;2022-11-04T04:48:17;11.38;;;7.78;;
12052;SDS011;6087;48.982;12.064;2022-11-04T04:50:45;9.43;;;8.10;;
12052;SDS011;6087;48.982;12.064;2022-11-04T04:53:15;12.75;;;7.95;;
12052;SDS011;6087;48.982;12.064;2022-11-04T04:55:43;9.05;;;6.55;;
12052;SDS011;6087;48.982;12.064;2022-11-04T04:58:09;9.40;;;7.03;;
12052;SDS011;6087;48.982;12.064;2022-11-04T05:00:36;7.07;;;5.80;;
12052;SDS011;6087;48.982;12.064;2022-11-04T05:03:03;8.93;;;6.47;;
12052;SDS011;6087;48.982;12.064;2022-11-04T05:05:32;11.20;;;7.15;;
12052;SDS011;6087;48.982;12.064;2022-11-04T05:08:02;8.80;;;6.38;;
12052;SDS011;6087;48.982;12.064;2022-11-04T05:10:30;10.10;;;5.75;;
12052;SDS011;6087;48.982;12.064;2022-11-04T05:12:57;9.48;;;5.88;;
12052;SDS011;6087;48.982;12.064;2022-11-04T05:15:42;7.03;;;6.05;;
12052;SDS011;6087;48.982;12.064;2022-11-04T05:18:09;7.15;;;5.45;;
12052;SDS011;6087;48.982;12.064;2022-11-04T05:20:37;6.32;;;5.28;;
12052;SDS011;6087;48.982;12.064;2022-11-04T05:23:05;7.30;;;4.93;;
12052;SDS011;6087;48.982;12.064;2022-11-04T05:25:32;4.88;;;4.38;;
12052;SDS011;6087;48.982;12.064;2022-11-04T05:27:59;9.93;;;5.15;;
12052;SDS011;6087;48.982;12.064;2022-11-04T05:30:27;6.10;;;5.10;;
12052;SDS011;6087;48.982;12.064;2022-11-04T05:32:54;5.03;;;4.53;;
12052;SDS011;6087;48.982;12.064;2022-11-04T05:35:21;5.97;;;4.17;;
12052;SDS011;6087;48.982;12.064;2022-11-04T05:37:49;5.83;;;4.50;;
12052;SDS011;6087;48.982;12.064;2022-11-04T05:40:16;5.38;;;4.15;;
12052;SDS011;6087;48.982;12.064;2022-11-04T05:42:43;6.45;;;4.85;;
12052;SDS011;6087;48.982;12.064;2022-11-04T05:45:10;5.60;;;4.35;;
12052;SDS011;6087;48.982;12.064;2022-11-04T05:47:37;6.00;;;4.35;;
12052;SDS011;6087;48.982;12.064;2022-11-04T05:50:05;5.63;;;3.65;;
12052;SDS011;6087;48.982;12.064;2022-11-04T05:52:32;5.80;;;3.60;;
12052;SDS011;6087;48.982;12.064;2022-11-04T05:55:00;5.70;;;4.30;;
12052;SDS011;6087;48.982;12.064;2022-11-04T05:57:27;5.38;;;4.40;;
12052;SDS011;6087;48.982;12.064;2022-11-04T05:59:54;5.47;;;4.32;;
12052;SDS011;6087;48.982;12.064;2022-11-04T06:02:21;6.40;;;4.80;;
12052;SDS011;6087;48.982;12.064;2022-11-04T06:04:48;8.02;;;4.70;;
12052;SDS011;6087;48.982;12.064;2022-11-04T06:07:15;4.45;;;4.03;;
12052;SDS011;6087;48.982;12.064;2022-11-04T06:09:42;5.25;;;4.75;;
12052;SDS011;6087;48.982;12.064;2022-11-04T06:12:11;6.47;;;4.85;;
12052;SDS011;6087;48.982;12.064;2022-11-04T06:14:39;9.02;;;5.63;;
12052;SDS011;6087;48.982;12.064;2022-11-04T06:17:06;7.88;;;5.80;;
12052;SDS011;6087;48.982;12.064;2022-11-04T06:19:35;7.68;;;6.35;;
12052;SDS011;6087;48.982;12.064;2022-11-04T06:22:02;7.15;;;5.63;;
12052;SDS011;6087;48.982;12.064;2022-11-04T06:24:29;6.85;;;5.00;;
12052;SDS011;6087;48.982;12.064;2022-11-04T06:26:56;6.90;;;4.85;;
12052;SDS011;6087;48.982;12.064;2022-11-04T06:29:24;5.63;;;4.45;;
12052;SDS011;6087;48.982;12.064;2022-11-04T06:31:51;6.13;;;4.05;;
12052;SDS011;6087;48.982;12.064;2022-11-04T06:34:18;3.78;;;3.22;;
12052;SDS011;6087;48.982;12.064;2022-11-04T06:36:45;4.47;;;3.75;;
12052;SDS011;6087;48.982;12.064;2022-11-04T06:39:13;3.67;;;3.20;;
12052;SDS011;6087;48.982;12.064;2022-11-04T06:41:40;3.38;;;2.55;;
12052;SDS011;6087;48.982;12.064;2022-11-04T06:44:07;3.08;;;2.40;;
12052;SDS011;6087;48.982;12.064;2022-11-04T06:46:36;3.13;;;2.20;;
12052;SDS011;6087;48.982;12.064;2022-11-04T06:49:05;4.45;;;2.65;;
12052;SDS011;6087;48.982;12.064;2022-11-04T06:51:32;3.80;;;2.55;;
12052;SDS011;6087;48.982;12.064;2022-11-04T06:53:59;5.40;;;3.20;;
12052;SDS011;6087;48.982;12.064;2022-11-04T06:56:26;4.53;;;2.72;;
12052;SDS011;6087;48.982;12.064;2022-11-04T06:58:54;4.07;;;3.50;;
12052;SDS011;6087;48.982;12.064;2022-11-04T07:01:22;3.43;;;3.13;;
12052;SDS011;6087;48.982;12.064;2022-11-04T07:03:52;4.37;;;3.13;;
12052;SDS011;6087;48.982;12.064;2022-11-04T07:06:21;2.38;;;2.17;;
12052;SDS011;6087;48.982;12.064;2022-11-04T07:08:48;3.55;;;2.45;;
12052;SDS011;6087;48.982;12.064;2022-11-04T07:11:18;3.67;;;1.67;;
12052;SDS011;6087;48.982;12.064;2022-11-04T07:13:46;1.70;;;1.60;;
12052;SDS011;6087;48.982;12.064;2022-11-04T07:16:13;3.70;;;1.67;;
12052;SDS011;6087;48.982;12.064;2022-11-04T07:18:40;3.75;;;1.83;;
12052;SDS011;6087;48.982;12.064;2022-11-04T07:21:09;3.33;;;2.38;;
12052;SDS011;6087;48.982;12.064;2022-11-04T07:23:36;2.47;;;2.20;;
12052;SDS011;6087;48.982;12.064;2022-11-04T07:26:05;2.35;;;2.15;;
12052;SDS011;6087;48.982;12.064;2022-11-04T07:28:33;5.57;;;2.70;;
12052;SDS011;6087;48.982;12.064;2022-11-04T07:31:01;2.75;;;2.17;;
12052;SDS011;6087;48.982;12.064;2022-11-04T07:33:29;2.42;;;1.70;;
12052;SDS011;6087;48.982;12.064;2022-11-04T07:35:58;2.53;;;2.20;;
12052;SDS011;6087;48.982;12.064;2022-11-04T07:38:30;4.47;;;2.03;;
12052;SDS011;6087;48.982;12.064;2022-11-04T07:40:57;2.95;;;1.85;;
12052;SDS011;6087;48.982;12.064;2022-11-04T07:43:26;2.40;;;1.58;;
12052;SDS011;6087;48.982;12.064;2022-11-04T07:45:59;3.22;;;2.03;;
12052;SDS011;6087;48.982;12.064;2022-11-04T07:48:27;1.83;;;1.73;;
12052;SDS011;6087;48.982;12.064;2022-11-04T07:50:54;2.40;;;1.77;;
12052;SDS011;6087;48.982;12.064;2022-11-04T07:53:23;2.22;;;1.73;;
12052;SDS011;6087;48.982;12.064;2022-11-04T07:55:52;1.58;;;1.48;;
12052;SDS011;6087;48.982;12.064;2022-11-04T07:58:19;2.25;;;1.85;;
12052;SDS011;6087;48.982;12.064;2022-11-04T08:00:46;2.55;;;1.60;;
12052;SDS011;6087;48.982;12.064;2022-11-04T08:03:14;1.15;;;1.05;;
12052;SDS011;6087;48.982;12.064;2022-11-04T08:05:41;2.13;;;1.33;;
12052;SDS011;6087;48.982;12.064;2022-11-04T08:08:08;2.37;;;1.70;;
12052;SDS011;6087;48.982;12.064;2022-11-04T08:10:35;2.22;;;1.52;;
12052;SDS011;6087;48.982;12.064;2022-11-04T08:13:03;1.58;;;1.17;;
12052;SDS011;6087;48.982;12.064;2022-11-04T08:15:30;1.87;;;1.00;;
12052;SDS011;6087;48.982;12.064;2022-11-04T08:17:57;2.97;;;1.20;;
12052;SDS011;6087;48.982;12.064;2022-11-04T08:20:24;2.28;;;1.50;;
12052;SDS011;6087;48.982;12.064;2022-11-04T08:22:51;2.13;;;1.30;;
12052;SDS011;6087;48.982;12.064;2022-11-04T08:25:18;1.88;;;1.17;;
12052;SDS011;6087;48.982;12.064;2022-11-04T08:27:45;1.85;;;1.10;;
12052;SDS011;6087;48.982;12.064;2022-11-04T08:30:14;1.23;;;1.13;;
12052;SDS011;6087;48.982;12.064;2022-11-04T08:32:41;1.93;;;1.07;;
12052;SDS011;6087;48.982;12.064;2022-11-04T08:35:08;1.83;;;1.00;;
12052;SDS011;6087;48.982;12.064;2022-11-04T08:37:36;1.20;;;1.05;;
12052;SDS011;6087;48.982;12.064;2022-11-04T08:40:04;2.27;;;1.53;;
12052;SDS011;6087;48.982;12.064;2022-11-04T08:42:33;2.33;;;1.20;;
12052;SDS011;6087;48.982;12.064;2022-11-04T08:45:08;2.33;;;1.20;;
12052;SDS011;6087;48.982;12.064;2022-11-04T08:47:38;4.88;;;1.83;;
12052;SDS011;6087;48.982;12.064;2022-11-04T08:50:05;5.40;;;1.67;;
12052;SDS011;6087;48.982;12.064;2022-11-04T08:52:33;3.80;;;1.30;;
12052;SDS011;6087;48.982;12.064;2022-11-04T08:54:59;2.83;;;1.77;;
12052;SDS011;6087;48.982;12.064;2022-11-04T08:57:26;2.97;;;1.30;;
12052;SDS011;6087;48.982;12.064;2022-11-04T08:59:55;2.80;;;1.57;;
12052;SDS011;6087;48.982;12.064;2022-11-04T09:02:22;4.03;;;2.00;;
12052;SDS011;6087;48.982;12.064;2022-11-04T09:04:50;2.10;;;1.30;;
12052;SDS011;6087;48.982;12.064;2022-11-04T09:07:17;1.50;;;1.40;;
12052;SDS011;6087;48.982;12.064;2022-11-04T09:09:44;1.73;;;1.63;;
12052;SDS011;6087;48.982;12.064;2022-11-04T09:12:11;1.77;;;1.50;;
12052;SDS011;6087;48.982;12.064;2022-11-04T09:14:38;1.40;;;1.30;;
12052;SDS011;6087;48.982;12.064;2022-11-04T09:17:05;1.63;;;1.43;;
12052;SDS011;6087;48.982;12.064;2022-11-04T09:19:32;2.67;;;1.83;;
12052;SDS011;6087;48.982;12.064;2022-11-04T09:22:00;4.32;;;1.90;;
12052;SDS011;6087;48.982;12.064;2022-11-04T09:24:27;3.90;;;1.27;;
12052;SDS011;6087;48.982;12.064;2022-11-04T09:26:55;1.52;;;1.30;;
12052;SDS011;6087;48.982;12.064;2022-11-04T09:29:22;1.73;;;1.27;;
12052;SDS011;6087;48.982;12.064;2022-11-04T09:31:50;2.60;;;1.30;;
12052;SDS011;6087;48.982;12.064;2022-11-04T09:34:17;2.87;;;1.30;;
12052;SDS011;6087;48.982;12.064;2022-11-04T09:36:44;2.95;;;2.22;;
12052;SDS011;6087;48.982;12.064;2022-11-04T09:39:13;2.00;;;1.25;;
12052;SDS011;6087;48.982;12.064;2022-11-04T09:41:55;3.40;;;1.50;;
12052;SDS011;6087;48.982;12.064;2022-11-04T09:44:38;1.90;;;1.07;;
12052;SDS011;6087;48.982;12.064;2022-11-04T09:47:11;1.83;;;1.00;;
12052;SDS011;6087;48.982;12.064;2022-11-04T09:49:39;1.20;;;1.10;;
12052;SDS011;6087;48.982;12.064;2022-11-04T09:52:12;2.05;;;1.20;;
12052;SDS011;6087;48.982;12.064;2022-11-04T09:54:47;3.30;;;1.70;;
12052;SDS011;6087;48.982;12.064;2022-11-04T09:57:18;1.77;;;1.30;;
12052;SDS011;6087;48.982;12.064;2022-11-04T09:59:45;3.08;;;1.70;;
12052;SDS011;6087;48.982;12.064;2022-11-04T10:02:26;3.40;;;1.05;;
12052;SDS011;6087;48.982;12.064;2022-11-04T10:05:13;1.27;;;1.00;;
12052;SDS011;6087;48.982;12.064;2022-11-04T10:07:53;2.45;;;1.33;;
12052;SDS011;6087;48.982;12.064;2022-11-04T10:10:33;2.10;;;1.00;;
12052;SDS011;6087;48.982;12.064;2022-11-04T10:13:12;4.70;;;1.38;;
12052;SDS011;6087;48.982;12.064;2022-11-04T10:15:53;1.85;;;1.40;;
12052;SDS011;6087;48.982;12.064;2022-11-04T10:18:33;5.38;;;1.48;;
12052;SDS011;6087;48.982;12.064;2022-11-04T10:21:30;5.45;;;1.40;;
12052;SDS011;6087;48.982;12.064;2022-11-04T10:24:06;2.97;;;1.30;;
12052;SDS011;6087;48.982;12.064;2022-11-04T10:26:44;5.37;;;1.33;;
12052;SDS011;6087;48.982;12.064;2022-11-04T10:29:22;2.50;;;1.23;;
12052;SDS011;6087;48.982;12.064;2022-11-04T10:31:55;1.90;;;1.35;;
12052;SDS011;6087;48.982;12.064;2022-11-04T10:34:28;3.75;;;1.75;;
12052;SDS011;6087;48.982;12.064;2022-11-04T10:37:00;2.35;;;1.35;;
12052;SDS011;6087;48.982;12.064;2022-11-04T10:39:29;2.33;;;2.08;;
12052;SDS011;6087;48.982;12.064;2022-11-04T10:42:01;4.45;;;1.90;;
12052;SDS011;6087;48.982;12.064;2022-11-04T10:44:31;2.13;;;1.63;;
12052;SDS011;6087;48.982;12.064;2022-11-04T10:47:02;6.93;;;1.83;;
12052;SDS011;6087;48.982;12.064;2022-11-04T10:49:47;1.92;;;1.42;;
12052;SDS011;6087;48.982;12.064;2022-11-04T10:52:22;2.15;;;1.40;;
12052;SDS011;6087;48.982;12.064;2022-11-04T10:54:49;3.28;;;1.58;;
12052;SDS011;6087;48.982;12.064;2022-11-04T10:57:18;2.25;;;1.70;;
12052;SDS011;6087;48.982;12.064;2022-11-04T10:59:51;2.75;;;1.60;;
12052;SDS011;6087;48.982;12.064;2022-11-04T11:05:13;2.45;;;1.80;;
12052;SDS011;6087;48.982;12.064;2022-11-04T11:07:48;3.97;;;1.95;;
12052;SDS011;6087;48.982;12.064;2022-11-04T11:10:16;4.60;;;1.90;;
12052;SDS011;6087;48.982;12.064;2022-11-04T11:12:51;4.05;;;1.77;;
12052;SDS011;6087;48.982;12.064;2022-11-04T11:15:27;4.15;;;2.15;;
12052;SDS011;6087;48.982;12.064;2022-11-04T11:17:59;4.97;;;2.33;;
12052;SDS011;6087;48.982;12.064;2022-11-04T11:20:39;2.97;;;1.95;;
12052;SDS011;6087;48.982;12.064;2022-11-04T11:23:31;3.42;;;2.10;;
12052;SDS011;6087;48.982;12.064;2022-11-04T11:26:03;1.83;;;1.65;;
12052;SDS011;6087;48.982;12.064;2022-11-04T11:28:34;2.67;;;1.60;;
12052;SDS011;6087;48.982;12.064;2022-11-04T11:31:05;6.65;;;1.70;;
12052;SDS011;6087;48.982;12.064;2022-11-04T11:33:39;2.50;;;1.60;;
12052;SDS011;6087;48.982;12.064;2022-11-04T11:36:19;1.92;;;1.40;;
12052;SDS011;6087;48.982;12.064;2022-11-04T11:38:51;7.40;;;2.08;;
12052;SDS011;6087;48.982;12.064;2022-11-04T11:41:25;3.28;;;1.85;;
12052;SDS011;6087;48.982;12.064;2022-11-04T11:44:01;5.55;;;1.98;;
12052;SDS011;6087;48.982;12.064;2022-11-04T11:46:32;3.60;;;1.70;;
12052;SDS011;6087;48.982;12.064;2022-11-04T11:49:02;3.05;;;1.52;;
12052;SDS011;6087;48.982;12.064;2022-11-04T11:51:31;5.90;;;2.00;;
12052;SDS011;6087;48.982;12.064;2022-11-04T11:56:47;4.47;;;2.20;;
12052;SDS011;6087;48.982;12.064;2022-11-04T11:59:21;4.18;;;1.70;;
12052;SDS011;6087;48.982;12.064;2022-11-04T12:01:55;3.40;;;2.03;;
12052;SDS011;6087;48.982;12.064;2022-11-04T12:04:33;2.75;;;2.13;;
12052;SDS011;6087;48.982;12.064;2022-11-04T12:07:03;3.28;;;1.80;;
12052;SDS011;6087;48.982;12.064;2022-11-04T12:09:38;2.25;;;1.75;;
12052;SDS011;6087;48.982;12.064;2022-11-04T12:15:10;4.80;;;2.35;;
12052;SDS011;6087;48.982;12.064;2022-11-04T12:17:53;5.40;;;2.17;;
12052;SDS011;6087;48.982;12.064;2022-11-04T12:20:33;2.72;;;1.80;;
12052;SDS011;6087;48.982;12.064;2022-11-04T12:23:10;5.15;;;1.85;;
12052;SDS011;6087;48.982;12.064;2022-11-04T12:25:44;4.53;;;1.98;;
12052;SDS011;6087;48.982;12.064;2022-11-04T12:28:26;5.20;;;2.33;;
12052;SDS011;6087;48.982;12.064;2022-11-04T12:31:05;3.92;;;2.08;;
12052;SDS011;6087;48.982;12.064;2022-11-04T12:33:42;2.55;;;1.85;;
12052;SDS011;6087;48.982;12.064;2022-11-04T12:36:26;3.70;;;1.92;;
12052;SDS011;6087;48.982;12.064;2022-11-04T12:39:08;2.35;;;1.90;;
12052;SDS011;6087;48.982;12.064;2022-11-04T12:41:55;4.40;;;1.83;;
12052;SDS011;6087;48.982;12.064;2022-11-04T12:44:31;3.10;;;1.88;;
12052;SDS011;6087;48.982;12.064;2022-11-04T12:47:07;3.87;;;2.60;;
12052;SDS011;6087;48.982;12.064;2022-11-04T12:49:47;3.88;;;1.80;;
12052;SDS011;6087;48.982;12.064;2022-11-04T12:52:39;2.90;;;2.05;;
12052;SDS011;6087;48.982;12.064;2022-11-04T12:55:31;4.85;;;2.00;;
12052;SDS011;6087;48.982;12.064;2022-11-04T12:58:05;3.40;;;2.35;;
12052;SDS011;6087;48.982;12.064;2022-11-04T13:00:41;6.25;;;2.30;;
12052;SDS011;6087;48.982;12.064;2022-11-04T13:03:11;3.42;;;1.73;;
12052;SDS011;6087;48.982;12.064;2022-11-04T13:05:42;7.20;;;2.60;;
12052;SDS011;6087;48.982;12.064;2022-11-04T13:08:13;6.28;;;2.83;;
12052;SDS011;6087;48.982;12.064;2022-11-04T13:10:48;4.90;;;2.45;;
12052;SDS011;6087;48.982;12.064;2022-11-04T13:13:20;3.38;;;1.95;;
12052;SDS011;6087;48.982;12.064;2022-11-04T13:15:53;4.60;;;1.83;;
12052;SDS011;6087;48.982;12.064;2022-11-04T13:18:25;4.40;;;2.15;;
12052;SDS011;6087;48.982;12.064;2022-11-04T13:20:57;3.08;;;1.85;;
12052;SDS011;6087;48.982;12.064;2022-11-04T13:23:30;8.73;;;2.38;;
12052;SDS011;6087;48.982;12.064;2022-11-04T13:26:05;2.67;;;2.10;;
12052;SDS011;6087;48.982;12.064;2022-11-04T13:28:36;3.17;;;2.10;;
12052;SDS011;6087;48.982;12.064;2022-11-04T13:31:07;4.47;;;2.15;;
12052;SDS011;6087;48.982;12.064;2022-11-04T13:33:42;2.25;;;1.92;;
12052;SDS011;6087;48.982;12.064;2022-11-04T13:36:26;2.92;;;1.60;;
12052;SDS011;6087;48.982;12.064;2022-11-04T13:39:00;3.22;;;1.65;;
12052;SDS011;6087;48.982;12.064;2022-11-04T13:44:36;2.67;;;1.35;;
12052;SDS011;6087;48.982;12.064;2022-11-04T13:47:10;4.55;;;1.75;;
12052;SDS011;6087;48.982;12.064;2022-11-04T13:49:46;2.47;;;1.45;;
12052;SDS011;6087;48.982;12.064;2022-11-04T13:52:14;4.80;;;1.60;;
12052;SDS011;6087;48.982;12.064;2022-11-04T13:54:42;6.10;;;1.52;;
12052;SDS011;6087;48.982;12.064;2022-11-04T13:57:12;3.35;;;1.60;;
12052;SDS011;6087;48.982;12.064;2022-11-04T13:59:41;4.13;;;1.60;;
12052;SDS011;6087;48.982;12.064;2022-11-04T14:02:38;4.13;;;1.92;;
12052;SDS011;6087;48.982;12.064;2022-11-04T14:08:19;2.85;;;1.48;;
12052;SDS011;6087;48.982;12.064;2022-11-04T14:13:45;7.35;;;1.90;;
12052;SDS011;6087;48.982;12.064;2022-11-04T14:16:36;2.88;;;1.40;;
12052;SDS011;6087;48.982;12.064;2022-11-04T14:22:21;2.78;;;1.65;;
12052;SDS011;6087;48.982;12.064;2022-11-04T14:25:02;5.82;;;2.15;;
12052;SDS011;6087;48.982;12.064;2022-11-04T14:27:44;2.53;;;1.73;;
12052;SDS011;6087;48.982;12.064;2022-11-04T14:33:07;5.55;;;2.08;;
12052;SDS011;6087;48.982;12.064;2022-11-04T14:35:47;7.50;;;2.75;;
12052;SDS011;6087;48.982;12.064;2022-11-04T14:38:19;5.78;;;3.45;;
12052;SDS011;6087;48.982;12.064;2022-11-04T14:41:10;5.17;;;2.27;;
12052;SDS011;6087;48.982;12.064;2022-11-04T14:43:40;5.05;;;1.73;;
12052;SDS011;6087;48.982;12.064;2022-11-04T14:46:08;3.30;;;1.60;;
12052;SDS011;6087;48.982;12.064;2022-11-04T14:48:40;2.40;;;1.38;;
12052;SDS011;6087;48.982;12.064;2022-11-04T14:51:17;3.60;;;1.65;;
12052;SDS011;6087;48.982;12.064;2022-11-04T14:53:49;3.33;;;1.80;;
12052;SDS011;6087;48.982;12.064;2022-11-04T14:56:21;4.50;;;1.83;;
12052;SDS011;6087;48.982;12.064;2022-11-04T14:58:53;3.95;;;2.15;;
12052;SDS011;6087;48.982;12.064;2022-11-04T15:01:21;3.63;;;1.90;;
12052;SDS011;6087;48.982;12.064;2022-11-04T15:03:49;6.78;;;2.25;;
12052;SDS011;6087;48.982;12.064;2022-11-04T15:06:24;2.83;;;1.50;;
12052;SDS011;6087;48.982;12.064;2022-11-04T15:08:54;4.55;;;2.00;;
12052;SDS011;6087;48.982;12.064;2022-11-04T15:11:23;3.60;;;1.70;;
12052;SDS011;6087;48.982;12.064;2022-11-04T15:14:13;4.15;;;1.70;;
12052;SDS011;6087;48.982;12.064;2022-11-04T15:16:43;6.65;;;1.80;;
12052;SDS011;6087;48.982;12.064;2022-11-04T15:19:13;3.42;;;1.60;;
12052;SDS011;6087;48.982;12.064;2022-11-04T15:21:46;2.78;;;1.83;;
12052;SDS011;6087;48.982;12.064;2022-11-04T15:24:14;4.18;;;2.03;;
12052;SDS011;6087;48.982;12.064;2022-11-04T15:26:43;4.00;;;1.95;;
12052;SDS011;6087;48.982;12.064;2022-11-04T15:29:16;3.15;;;1.83;;
12052;SDS011;6087;48.982;12.064;2022-11-04T15:31:52;3.30;;;2.40;;
12052;SDS011;6087;48.982;12.064;2022-11-04T15:34:21;5.45;;;2.15;;
12052;SDS011;6087;48.982;12.064;2022-11-04T15:36:48;5.30;;;1.88;;
12052;SDS011;6087;48.982;12.064;2022-11-04T15:39:17;5.22;;;2.25;;
12052;SDS011;6087;48.982;12.064;2022-11-04T15:41:48;3.65;;;2.03;;